Time;durP1;ratioP1;P1;durP2;ratioP2;P2;SDS_P1;SDS_P2;PMS_P1;PMS_P2;Temp;Humidity;BMP_temperature;BMP_pressure;BME280_temperature;BME280_humidity;BME280_pressure;Samples;Min_cycle;Max_cycle;Signal;HPM_P1;HPM_P2
2022/10/18 00:02:21;;;;;;;8.57;3.67;;;15.10;99.90;;;-144.05;91.61;125687.94;5011070;28;20034;-76
2022/10/18 00:04:47;;;;;;;6.90;3.50;;;15.10;99.90;;;-144.05;91.58;125687.94;5014308;28;20112;-75
2022/10/18 00:07:12;;;;;;;10.10;3.95;;;15.00;99.90;;;-144.05;91.40;125687.94;5015002;28;20082;-77
2022/10/18 00:09:38;;;;;;;6.35;3.60;;;15.00;99.90;;;-144.05;91.34;125687.94;5015347;28;20080;-77
2022/10/18 00:12:04;;;;;;;8.15;4.03;;;15.00;99.90;;;-144.05;91.33;125687.94;4997285;28;20033;-79
2022/10/18 00:14:30;;;;;;;7.40;4.38;;;15.00;99.90;;;-144.05;91.17;125687.94;5014313;28;20509;-76
2022/10/18 00:16:56;;;;;;;6.07;3.85;;;15.00;99.90;;;-144.05;90.87;125687.94;4997279;28;20468;-78
2022/10/18 00:19:22;;;;;;;7.95;4.35;;;15.00;99.90;;;-144.05;91.09;125687.94;5015145;28;20141;-79
2022/10/18 00:21:51;;;;;;;5.93;3.70;;;15.10;99.90;;;-144.05;91.05;125687.94;5015149;28;20411;-77
2022/10/18 00:24:17;;;;;;;6.20;4.00;;;15.10;99.90;;;-144.05;91.38;125687.94;4997392;28;20030;-77
2022/10/18 00:26:43;;;;;;;11.10;4.60;;;15.00;99.90;;;-144.05;91.33;125687.94;5014587;28;20026;-77
2022/10/18 00:29:14;;;;;;;6.00;4.07;;;15.10;99.90;;;-144.05;91.26;125687.94;5014427;28;20022;-75
2022/10/18 00:31:42;;;;;;;6.22;4.10;;;15.00;99.90;;;-144.05;91.25;125687.94;5014087;28;20026;-75
2022/10/18 00:34:15;;;;;;;5.80;3.78;;;15.00;99.90;;;-144.05;91.28;125687.94;5014081;28;20029;-77
2022/10/18 00:36:43;;;;;;;8.10;4.45;;;15.00;99.90;;;-144.05;91.08;125687.94;5014748;28;20030;-78
2022/10/18 00:39:18;;;;;;;6.20;4.00;;;15.10;99.90;;;-144.05;90.96;125687.94;4996493;28;20136;-76
2022/10/18 00:41:45;;;;;;;4.67;3.30;;;15.00;99.90;;;-144.05;90.94;125687.94;5014016;28;20420;-76
2022/10/18 00:44:10;;;;;;;6.30;4.00;;;15.00;99.90;;;-144.05;91.04;125687.94;4996418;28;20299;-77
2022/10/18 00:46:48;;;;;;;6.10;3.70;;;15.00;99.90;;;-144.05;91.32;125687.94;5014212;28;20034;-77
2022/10/18 00:49:22;;;;;;;7.18;3.70;;;15.00;99.90;;;-144.05;91.35;125687.94;4996397;28;20026;-76
2022/10/18 00:51:59;;;;;;;7.22;3.92;;;15.00;99.90;;;-144.05;91.32;125687.94;5014121;28;20121;-76
2022/10/18 00:54:31;;;;;;;7.10;3.40;;;15.00;99.90;;;-144.05;90.98;125687.94;5014198;28;20481;-77
2022/10/18 00:56:58;;;;;;;4.57;3.20;;;15.00;99.90;;;-144.05;91.12;125687.94;5013945;28;20076;-76
2022/10/18 00:59:25;;;;;;;5.80;3.30;;;15.00;99.90;;;-144.05;90.97;125687.94;5013458;28;20092;-75
2022/10/18 01:01:51;;;;;;;5.75;3.70;;;15.00;99.90;;;-144.05;91.06;125687.94;5014101;28;20073;-77
2022/10/18 01:04:20;;;;;;;6.53;3.63;;;15.00;99.90;;;-144.05;91.17;125687.94;5013865;28;20033;-77
2022/10/18 01:07:25;;;;;;;6.10;3.30;;;15.00;99.90;;;-144.05;91.20;125687.94;4995983;28;20405;-78
2022/10/18 01:10:24;;;;;;;5.00;3.00;;;15.00;99.90;;;-144.05;91.35;125687.94;5014023;28;20105;-78
2022/10/18 01:13:19;;;;;;;11.50;3.13;;;15.00;99.90;;;-144.05;91.45;125687.94;5013716;28;20032;-78
2022/10/18 01:16:23;;;;;;;4.65;3.13;;;15.00;99.90;;;-144.05;91.44;125687.94;5013445;28;20073;-76
2022/10/18 01:19:01;;;;;;;5.85;3.70;;;15.00;99.90;;;-144.05;91.46;125687.94;5013320;28;20416;-78
2022/10/18 01:22:01;;;;;;;8.48;4.13;;;14.90;99.90;;;-144.05;91.47;125687.94;5013550;28;20131;-77
2022/10/18 01:25:05;;;;;;;5.65;2.90;;;15.00;99.90;;;-144.05;91.52;125687.94;5013693;28;20503;-77
2022/10/18 01:28:33;;;;;;;8.30;3.47;;;15.00;99.90;;;-144.05;91.28;125687.94;5013555;28;20427;-78
2022/10/18 01:31:13;;;;;;;5.13;3.43;;;15.00;99.90;;;-144.05;91.20;125687.94;4952553;29;20122;-76
2022/10/18 01:34:06;;;;;;;6.10;3.42;;;15.00;99.90;;;-144.05;91.80;125687.94;4936630;29;20321;-76
2022/10/18 01:36:47;;;;;;;7.43;3.30;;;15.00;99.90;;;-144.05;91.55;125687.94;4990081;28;20038;-77
2022/10/18 01:41:46;;;;;;;6.78;3.05;;;14.90;99.90;;;-144.05;91.57;125687.94;4972427;28;20426;-80
2022/10/18 01:44:23;;;;;;;5.30;3.28;;;15.00;99.90;;;-144.05;91.37;125687.94;4956700;28;20042;-80
2022/10/18 01:46:54;;;;;;;4.20;3.13;;;14.90;99.90;;;-144.05;91.66;125687.94;4974261;28;20494;-80
2022/10/18 01:49:20;;;;;;;5.05;3.22;;;14.90;99.90;;;-144.05;91.62;125687.94;4974290;28;20027;-82
2022/10/18 01:51:46;;;;;;;6.07;2.90;;;15.00;99.90;;;-144.05;91.84;125687.94;4974420;28;20050;-80
2022/10/18 01:54:23;;;;;;;8.50;2.58;;;14.90;99.90;;;-144.05;91.84;125687.94;4972989;28;20121;-80
2022/10/18 01:57:35;;;;;;;6.00;2.92;;;15.00;99.90;;;-144.05;91.73;125687.94;4974443;28;20054;-81
2022/10/18 02:00:35;;;;;;;5.05;2.42;;;14.90;99.90;;;-144.05;91.46;125687.94;4974713;28;20582;-80
2022/10/18 02:03:20;;;;;;;4.60;2.33;;;14.90;99.90;;;-144.05;91.25;125687.94;4974508;28;20034;-81
2022/10/18 02:06:22;;;;;;;3.53;2.28;;;14.90;99.90;;;-144.05;91.07;125687.94;4957051;28;20137;-82
2022/10/18 02:09:08;;;;;;;4.20;2.40;;;15.00;99.90;;;-144.05;91.18;125687.94;4976284;28;20046;-81
2022/10/18 02:11:36;;;;;;;;;;;14.90;99.90;;;-144.05;91.12;125687.94;4974692;28;20542;-80
2022/10/18 02:14:14;;;;;;;4.60;2.67;;;14.90;99.90;;;-144.05;90.95;125687.94;4974688;28;20289;-82
2022/10/18 02:16:49;;;;;;;5.68;2.95;;;14.90;99.90;;;-144.05;91.17;125687.94;4974857;28;20022;-80
2022/10/18 02:19:42;;;;;;;6.33;2.77;;;14.90;99.90;;;-144.05;91.03;125687.94;4973946;28;20038;-81
2022/10/18 02:22:12;;;;;;;5.72;2.40;;;14.90;99.90;;;-144.05;91.11;125687.94;4974171;28;20281;-81
2022/10/18 02:24:48;;;;;;;8.95;3.08;;;14.80;99.90;;;-144.05;91.25;125687.94;4974220;28;20046;-79
2022/10/18 02:27:14;;;;;;;;;;;14.80;99.90;;;-144.05;91.13;125687.94;4974864;28;20390;-86
2022/10/18 02:29:43;;;;;;;9.95;2.78;;;14.90;99.90;;;-144.05;91.42;125687.94;4959042;28;19917;-79
2022/10/18 02:32:40;;;;;;;3.67;2.38;;;14.80;99.90;;;-144.05;91.33;125687.94;4972718;28;20045;-78
2022/10/18 02:35:26;;;;;;;5.22;2.75;;;14.80;99.90;;;-144.05;91.51;125687.94;4957314;28;20125;-82
2022/10/18 02:37:57;;;;;;;4.07;2.50;;;14.80;99.90;;;-144.05;91.44;125687.94;4975122;28;20106;-83
2022/10/18 02:40:25;;;;;;;7.10;2.92;;;14.80;99.90;;;-144.05;91.37;125687.94;4972529;28;20062;-78
2022/10/18 02:42:57;;;;;;;7.25;2.83;;;14.90;99.90;;;-144.05;91.48;125687.94;4996445;28;20035;-77
2022/10/18 02:45:25;;;;;;;5.60;2.90;;;14.80;99.90;;;-144.05;91.71;125687.94;4995982;28;20022;-76
2022/10/18 02:47:52;;;;;;;7.43;3.28;;;14.80;99.90;;;-144.05;91.65;125687.94;4996994;28;20030;-78
2022/10/18 02:50:18;;;;;;;4.00;3.17;;;14.80;99.90;;;-144.05;91.59;125687.94;4996911;28;20015;-77
2022/10/18 02:52:44;;;;;;;4.93;3.40;;;14.80;99.90;;;-144.05;91.65;125687.94;4973492;28;20046;-82
2022/10/18 02:55:10;;;;;;;8.65;3.35;;;14.80;99.90;;;-144.05;91.73;125687.94;4975153;28;20046;-83
2022/10/18 02:57:36;;;;;;;5.70;3.08;;;14.80;99.90;;;-144.05;91.78;125687.94;4974055;28;20121;-83
2022/10/18 03:00:05;;;;;;;6.18;3.50;;;14.80;99.90;;;-144.05;91.77;125687.94;4973676;28;20113;-81
2022/10/18 03:02:31;;;;;;;4.43;2.58;;;14.80;99.90;;;-144.05;91.73;125687.94;4973566;28;20031;-79
2022/10/18 03:04:57;;;;;;;5.20;2.70;;;14.80;99.90;;;-144.05;91.86;125687.94;4972383;28;20115;-79
2022/10/18 03:07:23;;;;;;;3.55;2.47;;;14.80;99.90;;;-144.05;91.75;125687.94;4973574;28;20121;-83
2022/10/18 03:09:49;;;;;;;4.13;2.90;;;14.80;99.90;;;-144.05;91.66;125687.94;4971952;28;20034;-83
2022/10/18 03:12:15;;;;;;;6.00;3.38;;;14.80;99.90;;;-144.05;91.73;125687.94;4972188;28;20398;-83
2022/10/18 03:14:41;;;;;;;6.53;3.13;;;14.80;99.90;;;-144.05;91.98;125687.94;4956202;28;20031;-82
2022/10/18 03:17:07;;;;;;;7.05;3.15;;;14.90;99.90;;;-144.05;91.90;125687.94;4972539;28;20031;-82
2022/10/18 03:19:33;;;;;;;4.00;3.03;;;14.80;99.90;;;-144.05;91.88;125687.94;4956417;28;20031;-82
2022/10/18 03:21:59;;;;;;;4.50;3.10;;;14.80;99.90;;;-144.05;91.93;125687.94;4972292;28;20516;-82
2022/10/18 03:24:25;;;;;;;6.20;3.28;;;14.80;99.90;;;-144.05;91.88;125687.94;4973419;28;20542;-83
2022/10/18 03:26:50;;;;;;;4.82;3.58;;;14.70;99.90;;;-144.05;91.98;125687.94;4973376;28;20397;-82
2022/10/18 03:29:16;;;;;;;5.00;3.50;;;14.80;99.90;;;-144.05;92.06;125687.94;4972976;28;20515;-82
2022/10/18 03:31:42;;;;;;;5.43;3.50;;;14.70;99.90;;;-144.05;91.99;125687.94;4955855;28;20031;-82
2022/10/18 03:34:08;;;;;;;5.65;3.35;;;14.70;99.90;;;-144.05;92.12;125687.94;4977021;28;20065;-82
2022/10/18 03:36:34;;;;;;;6.53;3.25;;;14.70;99.90;;;-144.05;92.11;125687.94;4973945;28;20069;-83
2022/10/18 03:39:00;;;;;;;6.50;3.80;;;14.70;99.90;;;-144.05;92.26;125687.94;4975435;28;20101;-82
2022/10/18 03:41:27;;;;;;;3.80;2.90;;;14.70;99.90;;;-144.05;92.16;125687.94;4975393;28;20039;-82
2022/10/18 03:43:52;;;;;;;6.20;3.08;;;14.80;99.90;;;-144.05;92.29;125687.94;4976978;28;20085;-80
2022/10/18 03:46:18;;;;;;;4.43;3.53;;;14.70;99.90;;;-144.05;92.13;125687.94;4977154;28;20068;-80
2022/10/18 03:48:44;;;;;;;7.57;4.15;;;14.70;99.90;;;-144.05;92.16;125687.94;4977130;28;20035;-81
2022/10/18 03:51:10;;;;;;;10.13;3.90;;;14.70;99.90;;;-144.05;92.25;125687.94;4964090;28;20031;-84
2022/10/18 03:53:36;;;;;;;6.50;3.78;;;14.80;99.90;;;-144.05;92.19;125687.94;4978332;28;20038;-83
2022/10/18 03:56:01;;;;;;;5.43;3.83;;;14.80;99.90;;;-144.05;92.21;125687.94;4976706;28;20027;-82
2022/10/18 03:58:27;;;;;;;5.68;3.83;;;14.80;99.90;;;-144.05;92.13;125687.94;4976545;28;20041;-82
2022/10/18 04:00:54;;;;;;;6.63;4.13;;;14.80;99.90;;;-144.05;92.21;125687.94;4977587;28;20521;-84
2022/10/18 04:03:21;;;;;;;5.32;3.72;;;14.80;99.90;;;-144.05;92.21;125687.94;4960352;28;20085;-84
2022/10/18 04:05:49;;;;;;;8.57;4.07;;;14.80;99.90;;;-144.05;92.33;125687.94;4977220;28;20065;-82
2022/10/18 04:08:16;;;;;;;5.82;3.67;;;14.80;99.90;;;-144.05;92.28;125687.94;4976737;28;20054;-82
2022/10/18 04:10:43;;;;;;;5.82;3.63;;;14.80;99.90;;;-144.05;92.43;125687.94;4976489;28;20096;-81
2022/10/18 04:13:10;;;;;;;5.78;3.55;;;14.80;99.90;;;-144.05;92.30;125687.94;4974887;28;20085;-82
2022/10/18 04:15:36;;;;;;;4.43;3.33;;;14.80;99.90;;;-144.05;92.44;125687.94;4976315;28;20026;-82
2022/10/18 04:18:02;;;;;;;4.82;3.63;;;14.80;99.90;;;-144.05;92.41;125687.94;4975904;28;20109;-82
2022/10/18 04:20:28;;;;;;;6.03;3.53;;;14.80;99.90;;;-144.05;92.46;125687.94;4974730;28;20037;-82
2022/10/18 04:22:56;;;;;;;7.35;4.32;;;14.80;99.90;;;-144.05;92.64;125687.94;4958660;28;20023;-81
2022/10/18 04:25:22;;;;;;;8.40;3.60;;;14.80;99.90;;;-144.05;92.46;125687.94;4974555;28;20053;-81
2022/10/18 04:27:48;;;;;;;4.88;3.28;;;14.80;99.90;;;-144.05;92.39;125687.94;4974743;28;20023;-81
2022/10/18 04:30:14;;;;;;;10.25;4.57;;;14.80;99.90;;;-144.05;92.61;125687.94;4976239;28;20094;-78
2022/10/18 04:32:40;;;;;;;6.82;4.00;;;14.80;99.90;;;-144.05;92.52;125687.94;4958755;28;20070;-83
2022/10/18 04:35:06;;;;;;;7.00;4.43;;;14.90;99.90;;;-144.05;92.71;125687.94;4975222;28;20039;-81
2022/10/18 04:37:33;;;;;;;9.80;3.90;;;14.80;99.90;;;-144.05;92.62;125687.94;4976696;28;20072;-83
2022/10/18 04:39:59;;;;;;;5.82;4.45;;;14.80;99.90;;;-144.05;92.71;125687.94;4959051;28;20031;-83
2022/10/18 04:42:25;;;;;;;6.22;4.07;;;14.80;99.90;;;-144.05;92.75;125687.94;4976652;28;20031;-81
2022/10/18 04:44:50;;;;;;;7.10;3.38;;;14.80;99.90;;;-144.05;92.68;125687.94;4958892;28;20114;-82
2022/10/18 04:47:17;;;;;;;4.97;3.58;;;14.80;99.90;;;-144.05;92.75;125687.94;4975143;28;20117;-81
2022/10/18 04:49:43;;;;;;;7.28;3.83;;;14.80;99.90;;;-144.05;92.86;125687.94;4975944;28;20123;-82
2022/10/18 04:52:09;;;;;;;8.27;4.00;;;14.80;99.90;;;-144.05;92.86;125687.94;4974958;28;20538;-81
2022/10/18 04:54:36;;;;;;;6.75;3.90;;;14.80;99.90;;;-144.05;92.78;125687.94;4976356;28;20031;-84
2022/10/18 04:57:03;;;;;;;8.25;4.05;;;14.90;99.90;;;-144.05;92.80;125687.94;4976389;28;20054;-84
2022/10/18 04:59:28;;;;;;;9.25;4.00;;;14.80;99.90;;;-144.05;92.83;125687.94;4976365;28;20106;-80
2022/10/18 05:01:54;;;;;;;9.10;3.60;;;14.80;99.90;;;-144.05;92.89;125687.94;4975982;28;20094;-80
2022/10/18 05:04:20;;;;;;;5.78;3.95;;;14.80;99.90;;;-144.05;92.88;125687.94;4974336;28;20037;-82
2022/10/18 05:06:46;;;;;;;9.13;4.32;;;14.80;99.90;;;-144.05;92.96;125687.94;4975990;28;20038;-80
2022/10/18 05:09:12;;;;;;;7.05;4.18;;;14.80;99.90;;;-144.05;92.75;125687.94;4958265;28;20038;-81
2022/10/18 05:11:38;;;;;;;6.40;3.72;;;14.80;99.90;;;-144.05;92.78;125687.94;4977644;28;20027;-86
2022/10/18 05:14:04;;;;;;;7.13;4.22;;;14.80;99.90;;;-144.05;92.80;125687.94;4977299;28;20033;-81
2022/10/18 05:16:31;;;;;;;6.40;3.65;;;14.80;99.90;;;-144.05;93.01;125687.94;4974018;28;20383;-81
2022/10/18 05:18:57;;;;;;;10.35;4.85;;;14.80;99.90;;;-144.05;92.87;125687.94;4957887;28;20066;-84
2022/10/18 05:21:23;;;;;;;6.55;4.40;;;14.80;99.90;;;-144.05;93.00;125687.94;4957749;28;20027;-84
2022/10/18 05:23:49;;;;;;;7.53;4.45;;;14.80;99.90;;;-144.05;92.92;125687.94;4958429;28;20045;-82
2022/10/18 05:26:14;;;;;;;8.77;4.78;;;14.80;99.90;;;-144.05;93.15;125687.94;4975033;28;20030;-82
2022/10/18 05:28:40;;;;;;;6.35;3.70;;;14.80;99.90;;;-144.05;93.16;125687.94;4974366;28;20546;-83
2022/10/18 05:31:10;;;;;;;7.88;4.15;;;14.80;99.90;;;-144.05;93.12;125687.94;4976420;28;20055;-85
2022/10/18 05:33:37;;;;;;;6.68;3.83;;;14.80;99.90;;;-144.05;93.08;125687.94;4958020;28;20051;-82
2022/10/18 05:36:03;;;;;;;9.98;5.07;;;14.80;99.90;;;-144.05;93.19;125687.94;4958543;28;20169;-82
2022/10/18 05:38:29;;;;;;;8.27;4.13;;;14.80;99.90;;;-144.05;93.20;125687.94;4981260;28;20042;-84
2022/10/18 05:40:56;;;;;;;8.73;5.32;;;14.80;99.90;;;-144.05;93.00;125687.94;4980590;28;20066;-84
2022/10/18 05:43:22;;;;;;;10.93;4.68;;;14.80;99.90;;;-144.05;93.02;125687.94;4968146;28;20101;-82
2022/10/18 05:45:50;;;;;;;8.15;4.20;;;14.80;99.90;;;-144.05;93.05;125687.94;4973642;28;20039;-82
2022/10/18 05:48:17;;;;;;;9.75;5.13;;;14.80;99.90;;;-144.05;93.14;125687.94;4975017;28;20102;-79
2022/10/18 05:50:44;;;;;;;7.82;4.70;;;14.80;99.90;;;-144.05;93.12;125687.94;4973814;28;20038;-82
2022/10/18 05:53:10;;;;;;;9.05;4.68;;;14.80;99.90;;;-144.05;93.15;125687.94;4977987;28;20415;-81
2022/10/18 05:55:36;;;;;;;10.23;5.25;;;14.80;99.90;;;-144.05;93.31;125687.94;4977619;28;20030;-83
2022/10/18 05:58:03;;;;;;;8.32;5.47;;;14.80;99.90;;;-144.05;93.25;125687.94;4960242;28;20506;-77
2022/10/18 06:00:29;;;;;;;8.27;4.75;;;14.70;99.90;;;-144.05;93.36;125687.94;4976914;28;20132;-81
2022/10/18 06:02:55;;;;;;;9.52;6.07;;;14.70;99.90;;;-144.05;93.32;125687.94;4959995;28;20185;-80
2022/10/18 06:05:21;;;;;;;15.65;6.72;;;14.70;99.90;;;-144.05;93.25;125687.94;4976546;28;20030;-82
2022/10/18 06:07:47;;;;;;;10.05;6.63;;;14.80;99.90;;;-144.05;93.31;125687.94;4975361;28;20037;-82
2022/10/18 06:10:13;;;;;;;12.10;7.10;;;14.80;99.90;;;-144.05;93.35;125687.94;4974713;28;20034;-81
2022/10/18 06:12:39;;;;;;;12.88;7.75;;;14.80;99.90;;;-144.05;93.20;125687.94;4958656;28;20030;-82
2022/10/18 06:15:06;;;;;;;10.50;6.45;;;14.80;99.90;;;-144.05;93.25;125687.94;4975251;28;20035;-81
2022/10/18 06:17:32;;;;;;;9.15;5.40;;;14.80;99.90;;;-144.05;93.08;125687.94;4975398;28;20064;-79
2022/10/18 06:19:57;;;;;;;7.10;5.70;;;14.80;99.90;;;-144.05;93.15;125687.94;4975265;28;20034;-82
2022/10/18 06:22:23;;;;;;;14.32;6.28;;;14.80;99.90;;;-144.05;93.20;125687.94;4975619;28;20035;-83
2022/10/18 06:24:49;;;;;;;15.80;7.35;;;14.80;99.90;;;-144.05;93.29;125687.94;4976048;28;20076;-83
2022/10/18 06:27:15;;;;;;;14.10;7.55;;;14.80;99.90;;;-144.05;93.12;125687.94;4978142;28;20047;-84
2022/10/18 06:29:41;;;;;;;20.40;10.68;;;14.80;99.90;;;-144.05;93.36;125687.94;4957151;28;20043;-82
2022/10/18 06:32:08;;;;;;;15.65;8.95;;;14.80;99.90;;;-144.05;93.28;125687.94;4974528;28;20094;-81
2022/10/18 06:34:34;;;;;;;15.15;8.05;;;14.90;99.90;;;-144.05;93.17;125687.94;4961014;28;20490;-83
2022/10/18 06:37:00;;;;;;;13.65;7.78;;;14.90;99.90;;;-144.05;93.32;125687.94;4963394;28;20046;-84
2022/10/18 06:39:27;;;;;;;19.00;8.63;;;14.90;99.90;;;-144.05;93.12;125687.94;4982183;28;20027;-81
2022/10/18 06:41:52;;;;;;;14.18;8.60;;;14.90;99.90;;;-144.05;93.19;125687.94;4961727;28;20618;-82
2022/10/18 06:44:20;;;;;;;22.83;10.10;;;15.00;99.90;;;-144.05;93.30;125687.94;4976596;28;20039;-83
2022/10/18 06:46:48;;;;;;;22.08;11.63;;;15.00;99.90;;;-144.05;93.17;125687.94;4957684;28;20406;-81
2022/10/18 06:49:15;;;;;;;21.30;10.50;;;15.00;99.90;;;-144.05;93.28;125687.94;4975830;28;20038;-82
2022/10/18 06:51:45;;;;;;;18.00;10.57;;;15.00;99.90;;;-144.05;93.17;125687.94;4975783;28;20081;-84
2022/10/18 06:54:11;;;;;;;20.00;9.80;;;15.00;99.90;;;-144.05;93.22;125687.94;4977151;28;20030;-80
2022/10/18 06:56:38;;;;;;;16.88;9.35;;;15.00;99.90;;;-144.05;93.27;125687.94;4958766;28;20035;-81
2022/10/18 06:59:04;;;;;;;20.38;10.05;;;15.00;99.90;;;-144.05;93.35;125687.94;4958314;28;20027;-81
2022/10/18 07:01:30;;;;;;;19.17;9.40;;;15.00;99.90;;;-144.05;93.42;125687.94;4975573;28;20042;-82
2022/10/18 07:03:56;;;;;;;18.48;9.70;;;15.00;99.90;;;-144.05;93.22;125687.94;4974817;28;20056;-80
2022/10/18 07:06:23;;;;;;;20.00;10.70;;;15.00;99.90;;;-144.05;93.31;125687.94;4974411;28;20031;-78
2022/10/18 07:08:54;;;;;;;19.45;10.85;;;15.10;99.90;;;-144.05;93.43;125687.94;4973243;28;20027;-80
2022/10/18 07:11:25;;;;;;;21.50;11.68;;;15.10;99.90;;;-144.05;93.50;125687.94;4957074;28;20042;-81
2022/10/18 07:14:03;;;;;;;24.75;12.07;;;15.10;99.90;;;-144.05;93.36;125687.94;4977666;28;20077;-81
2022/10/18 07:16:32;;;;;;;26.05;12.57;;;15.10;99.90;;;-144.05;93.47;125687.94;4978285;28;20470;-82
2022/10/18 07:18:58;;;;;;;25.95;12.98;;;15.10;99.90;;;-144.05;93.26;125687.94;4976565;28;20065;-82
2022/10/18 07:21:25;;;;;;;31.98;14.80;;;15.10;99.90;;;-144.05;93.35;125687.94;4977594;28;20037;-84
2022/10/18 07:23:52;;;;;;;24.83;11.80;;;15.20;99.90;;;-144.05;93.43;125687.94;4977188;28;20023;-81
2022/10/18 07:26:21;;;;;;;23.52;11.98;;;15.20;99.90;;;-144.05;93.38;125687.94;4976749;28;20383;-83
2022/10/18 07:29:00;;;;;;;29.00;13.23;;;15.20;99.90;;;-144.05;93.32;125687.94;4978544;28;20038;-79
2022/10/18 07:31:27;;;;;;;21.90;11.77;;;15.30;99.90;;;-144.05;93.42;125687.94;4976494;28;20031;-83
2022/10/18 07:33:53;;;;;;;22.45;12.07;;;15.30;99.90;;;-144.05;93.39;125687.94;4960270;28;20030;-81
2022/10/18 07:36:23;;;;;;;27.10;14.10;;;15.30;99.90;;;-144.05;93.30;125687.94;4977528;28;20402;-81
2022/10/18 07:38:51;;;;;;;31.95;15.63;;;15.30;99.90;;;-144.05;93.22;125687.94;4977839;28;20494;-80
2022/10/18 07:41:19;;;;;;;28.20;13.90;;;15.40;99.90;;;-144.05;93.07;125687.94;5012344;23;20077;-78
2022/10/18 07:43:49;;;;;;;26.70;14.20;;;15.30;99.90;;;-144.05;93.10;125687.94;4997414;28;20038;-78
2022/10/18 07:46:17;;;;;;;33.33;15.82;;;15.30;99.90;;;-144.05;93.31;125687.94;4978806;28;20453;-76
2022/10/18 07:48:43;;;;;;;37.67;17.98;;;15.40;99.90;;;-144.05;93.12;125687.94;4978942;28;20386;-78
2022/10/18 07:51:09;;;;;;;33.05;15.52;;;15.40;99.90;;;-144.05;93.08;125687.94;4997121;28;20048;-79
2022/10/18 07:53:37;;;;;;;25.80;13.13;;;15.40;99.90;;;-144.05;93.17;125687.94;4997000;28;20034;-77
2022/10/18 07:56:19;;;;;;;23.45;11.77;;;15.40;99.90;;;-144.05;93.25;125687.94;4996409;28;20030;-78
2022/10/18 07:58:52;;;;;;;24.65;13.05;;;15.40;99.90;;;-144.05;93.06;125687.94;4978892;28;20030;-78
2022/10/18 08:01:21;;;;;;;33.25;15.07;;;15.50;99.90;;;-144.05;93.10;125687.94;4995995;28;20030;-76
2022/10/18 08:03:47;;;;;;;34.70;17.55;;;15.60;99.90;;;-144.05;93.00;125687.94;4995322;28;20392;-80
2022/10/18 08:06:17;;;;;;;35.70;16.75;;;15.60;99.90;;;-144.05;92.87;125687.94;4978427;28;20057;-78
2022/10/18 08:08:45;;;;;;;35.45;16.95;;;15.70;99.90;;;-144.05;92.79;125687.94;4978043;28;20049;-77
2022/10/18 08:11:24;;;;;;;33.13;16.42;;;15.80;99.90;;;-144.05;92.68;125687.94;4996339;28;20050;-79
2022/10/18 08:13:53;;;;;;;36.00;16.85;;;15.80;99.90;;;-144.05;92.69;125687.94;4996416;28;20497;-77
2022/10/18 08:16:26;;;;;;;31.95;17.38;;;15.80;99.90;;;-144.05;92.52;125687.94;4996167;28;20435;-78
2022/10/18 08:18:56;;;;;;;40.97;20.15;;;15.90;99.90;;;-144.05;92.32;125687.94;4978895;28;20031;-79
2022/10/18 08:21:21;;;;;;;47.33;21.50;;;16.00;99.90;;;-144.05;92.16;125687.94;4996462;28;20126;-78
2022/10/18 08:23:48;;;;;;;45.03;22.38;;;16.00;99.90;;;-144.05;91.76;125687.94;4995130;28;20105;-78
2022/10/18 08:26:19;;;;;;;36.90;20.98;;;16.00;99.90;;;-144.05;91.46;125687.94;4996293;28;20079;-78
2022/10/18 08:28:46;;;;;;;37.70;19.92;;;16.00;99.90;;;-144.05;91.35;125687.94;4996115;28;20106;-80
2022/10/18 08:31:16;;;;;;;39.63;20.13;;;16.00;99.90;;;-144.05;91.13;125687.94;4995897;28;20022;-77
2022/10/18 08:33:44;;;;;;;47.90;23.27;;;15.90;99.90;;;-144.05;90.93;125687.94;4996166;28;20030;-78
2022/10/18 08:36:15;;;;;;;43.95;23.52;;;15.90;99.90;;;-144.05;90.52;125687.94;4995915;28;20390;-77
2022/10/18 08:38:42;;;;;;;49.78;25.20;;;15.90;99.90;;;-144.05;90.78;125687.94;4996139;28;20026;-78
2022/10/18 08:41:36;;;;;;;46.28;23.90;;;15.90;99.90;;;-144.05;90.65;125687.94;4978668;28;20367;-79
2022/10/18 08:44:29;;;;;;;44.72;23.27;;;15.90;99.90;;;-144.05;90.57;125687.94;4995839;28;20030;-78
2022/10/18 08:47:06;;;;;;;67.90;30.73;;;15.80;99.90;;;-144.05;90.02;125687.94;4995351;28;20161;-78
2022/10/18 08:49:48;;;;;;;52.28;27.33;;;15.80;99.90;;;-144.05;90.19;125687.94;4995972;28;20367;-78
2022/10/18 08:52:58;;;;;;;61.70;29.75;;;15.80;99.90;;;-144.05;90.50;125687.94;5008733;28;20030;-78
2022/10/18 08:55:38;;;;;;;57.75;30.75;;;15.80;99.90;;;-144.05;90.05;125687.94;5008302;28;20061;-77
2022/10/18 08:58:23;;;;;;;60.60;30.60;;;15.70;99.90;;;-144.05;90.09;125687.94;5003946;28;20030;-80
2022/10/18 09:01:20;;;;;;;69.47;31.73;;;15.70;99.90;;;-144.05;90.02;125687.94;4996203;28;20034;-78
2022/10/18 09:04:33;;;;;;;62.75;29.15;;;15.60;99.90;;;-144.05;90.08;125687.94;4995866;28;20031;-79
2022/10/18 09:07:40;;;;;;;51.15;26.25;;;15.60;99.90;;;-144.05;90.34;125687.94;4995207;28;20053;-78
2022/10/18 09:10:52;;;;;;;51.42;29.60;;;15.60;99.90;;;-144.05;90.17;125687.94;4995201;28;20081;-78
2022/10/18 09:13:40;;;;;;;54.28;27.48;;;15.60;99.90;;;-144.05;90.50;125687.94;4978112;28;20209;-79
2022/10/18 09:16:35;;;;;;;57.28;29.88;;;15.70;99.90;;;-144.05;90.34;125687.94;4977940;28;20397;-78
2022/10/18 09:20:00;;;;;;;49.13;27.15;;;15.80;99.90;;;-144.05;90.45;125687.94;4995481;28;20054;-79
2022/10/18 09:23:04;;;;;;;55.45;29.10;;;15.80;99.90;;;-144.05;90.32;125687.94;4977809;28;20053;-78
2022/10/18 09:25:46;;;;;;;55.63;29.08;;;15.90;99.90;;;-144.05;89.43;125687.94;4977863;28;20085;-80
2022/10/18 09:28:49;;;;;;;54.72;31.17;;;16.00;99.90;;;-144.05;89.09;125687.94;4977989;28;20027;-78
2022/10/18 09:32:06;;;;;;;54.00;28.23;;;16.00;99.90;;;-144.05;88.67;125687.94;4995215;28;20110;-78
2022/10/18 09:34:45;;;;;;;;;;;16.00;99.90;;;-144.05;88.75;125687.94;4978006;28;20121;-78
2022/10/18 09:37:20;;;;;;;57.35;29.13;;;16.10;99.90;;;-144.05;88.46;125687.94;4976969;28;19922;-79
2022/10/18 09:39:50;;;;;;;51.53;28.67;;;16.10;99.90;;;-144.05;88.12;125687.94;4994584;28;20026;-80
2022/10/18 09:42:41;;;;;;;47.58;26.38;;;16.20;99.90;;;-144.05;88.31;125687.94;4995184;28;20289;-78
2022/10/18 09:45:33;;;;;;;54.15;28.95;;;16.20;99.90;;;-144.05;87.88;125687.94;4995219;28;20030;-79
2022/10/18 09:48:17;;;;;;;51.38;29.48;;;16.30;99.90;;;-144.05;87.65;125687.94;4994685;28;20026;-77
2022/10/18 09:50:59;;;;;;;47.58;28.83;;;16.30;99.90;;;-144.05;86.83;125687.94;4994003;28;20191;-77
2022/10/18 09:53:39;;;;;;;47.88;26.50;;;16.30;99.90;;;-144.05;86.19;125687.94;4994452;28;20127;-78
2022/10/18 09:56:21;;;;;;;47.00;27.98;;;16.20;99.90;;;-144.05;86.52;125687.94;4994264;28;20037;-78
2022/10/18 09:58:50;;;;;;;42.22;25.58;;;16.30;99.90;;;-144.05;86.51;125687.94;4993919;28;20033;-78
2022/10/18 10:01:25;;;;;;;37.60;22.58;;;16.40;99.90;;;-144.05;86.40;125687.94;4976526;28;20037;-79
2022/10/18 10:03:52;;;;;;;40.45;24.13;;;16.60;99.90;;;-144.05;86.14;125687.94;4994110;28;20038;-78
2022/10/18 10:06:30;;;;;;;36.58;21.98;;;16.70;99.90;;;-144.05;85.34;125687.94;4994132;28;20106;-78
2022/10/18 10:09:14;;;;;;;46.63;25.75;;;16.70;99.90;;;-144.05;84.28;125687.94;4994067;28;20026;-77
2022/10/18 10:11:49;;;;;;;42.95;25.50;;;16.70;99.90;;;-144.05;84.06;125687.94;4993915;28;20026;-77
2022/10/18 10:14:24;;;;;;;35.90;24.77;;;16.80;99.90;;;-144.05;82.99;125687.94;4993748;28;20038;-77
2022/10/18 10:17:05;;;;;;;44.03;27.50;;;16.80;99.90;;;-144.05;82.70;125687.94;4994033;28;20038;-80
2022/10/18 10:19:57;;;;;;;37.97;24.67;;;16.90;99.90;;;-144.05;81.99;125687.94;4993558;28;20058;-75
2022/10/18 10:22:40;;;;;;;47.50;30.40;;;17.00;99.90;;;-144.05;80.90;125687.94;4993831;28;20362;-77